This is the latest recevied weather packets stored in our database for station/object SQ3RAX-13. If no packets are shown the sender has not sent any weather packets the latest 10 day(s).
| Time | Temp. | Humidity | Pressure | Rain* | Wind** | Luminosity | Snow |
|---|---|---|---|---|---|---|---|
| 1777931168 | 15° C | 79% | 1012 hPa | 0 mm | - | - | - |
| 1777930568 | 15° C | 79% | 1012 hPa | 0 mm | - | - | - |
| 1777929968 | 15.56° C | 68% | 1012 hPa | 0 mm | - | - | - |
| 1777929367 | 16.11° C | 69% | 1012 hPa | 0 mm | - | - | - |
| 1777928768 | 16.11° C | 69% | 1012 hPa | 0 mm | - | - | - |
| 1777928167 | 16.11° C | 77% | 1012 hPa | 0 mm | - | - | - |
| 1777927567 | 16.11° C | 79% | 1012 hPa | 0 mm | - | - | - |
| 1777926967 | 16.11° C | 78% | 1012 hPa | 0 mm | - | - | - |
| 1777926367 | 16.67° C | 69% | 1012 hPa | 0 mm | - | - | - |
| 1777925767 | 17.22° C | 68% | 1012 hPa | 0 mm | - | - | - |
| 1777925167 | 17.22° C | 68% | 1012 hPa | 0 mm | - | - | - |
| 1777924567 | 17.22° C | 76% | 1012 hPa | 0 mm | - | - | - |
| 1777923967 | 17.22° C | 74% | 1012 hPa | 0 mm | - | - | - |
| 1777923367 | 17.78° C | 74% | 1012 hPa | 0 mm | - | - | - |
| 1777922767 | 18.33° C | 64% | 1012 hPa | 0 mm | - | - | - |
| 1777922167 | 19.44° C | 68% | 1012 hPa | 0 mm | - | - | - |
| 1777921567 | 19.44° C | 68% | 1012 hPa | 0 mm | - | - | - |
| 1777920967 | 19.44° C | 68% | 1012 hPa | 0 mm | - | - | - |
| 1777920367 | 19.44° C | 68% | 1012 hPa | 0 mm | - | - | - |
| 1777919767 | 20.56° C | 55% | 1011 hPa | 0 mm | - | - | - |
| 1777919167 | 20.56° C | 55% | 1011 hPa | 0 mm | - | - | - |
| 1777918567 | 21.11° C | 53% | 1011 hPa | 0 mm | - | - | - |
| 1777917967 | 21.11° C | 63% | 1011 hPa | 0 mm | - | - | - |
| 1777917367 | 21.11° C | 63% | 1011 hPa | 0 mm | - | - | - |
| 1777916767 | 21.11° C | 62% | 1011 hPa | 0 mm | - | - | - |
* Rain latest hour (hover to see other rain measurements)
** Current wind speed in m/s (hover to see current wind gust speed)